Time;durP1;ratioP1;P1;durP2;ratioP2;P2;SDS_P1;SDS_P2;PMS_P1;PMS_P2;Temp;Humidity;BMP_temperature;BMP_pressure;BME280_temperature;BME280_humidity;BME280_pressure;Samples;Min_cycle;Max_cycle;Signal;HPM_P1;HPM_P2
2022/06/09 05:00:26;;;;;;;3.30;1.47;;;16.40;97.20;;;;;;1748188;28;20186;-65
2022/06/09 05:01:18;;;;;;;2.35;1.40;;;16.40;97.20;;;;;;1747740;28;20581;-65
2022/06/09 05:02:10;;;;;;;3.65;1.65;;;16.40;97.20;;;;;;1747962;28;20232;-66
2022/06/09 05:03:01;;;;;;;2.30;1.40;;;16.40;97.20;;;;;;1747810;28;20680;-65
2022/06/09 05:03:53;;;;;;;2.67;1.60;;;16.40;97.20;;;;;;1748178;28;20743;-65
2022/06/09 05:04:44;;;;;;;3.30;1.77;;;16.40;97.20;;;;;;1748149;28;20221;-65
2022/06/09 05:05:36;;;;;;;3.13;1.50;;;16.40;97.20;;;;;;1748408;28;20313;-65
2022/06/09 05:06:28;;;;;;;2.25;1.33;;;16.40;97.20;;;;;;1748042;28;20209;-65
2022/06/09 05:07:19;;;;;;;3.22;1.40;;;16.40;97.20;;;;;;1747875;28;20198;-65
2022/06/09 05:08:11;;;;;;;1.67;1.50;;;16.30;97.20;;;;;;1747954;28;20309;-65
2022/06/09 05:09:03;;;;;;;4.32;1.92;;;16.30;97.20;;;;;;1748146;28;20312;-65
2022/06/09 05:09:54;;;;;;;4.25;1.90;;;16.30;97.20;;;;;;1747283;28;20205;-66
2022/06/09 05:10:47;;;;;;;1.80;1.20;;;16.30;97.20;;;;;;1747843;28;20305;-66
2022/06/09 05:11:37;;;;;;;2.63;1.20;;;16.30;97.20;;;;;;1748048;28;20464;-65
2022/06/09 05:12:29;;;;;;;2.50;1.40;;;16.20;97.20;;;;;;1748094;28;20202;-65
2022/06/09 05:13:20;;;;;;;3.38;1.50;;;16.20;97.20;;;;;;1748057;28;20605;-66
2022/06/09 05:14:13;;;;;;;7.03;1.90;;;16.20;97.20;;;;;;1748115;28;20671;-65
2022/06/09 05:15:05;;;;;;;3.58;1.70;;;16.20;97.20;;;;;;1748006;28;20211;-65
2022/06/09 05:15:58;;;;;;;2.35;1.42;;;16.20;97.20;;;;;;1748072;28;20194;-65
2022/06/09 05:16:49;;;;;;;2.58;1.90;;;16.20;97.20;;;;;;1747837;28;20198;-65
2022/06/09 05:17:41;;;;;;;1.80;1.40;;;16.20;97.20;;;;;;1747964;28;20301;-65
2022/06/09 05:18:33;;;;;;;2.13;1.30;;;16.10;97.20;;;;;;1748020;28;20214;-65
2022/06/09 05:19:25;;;;;;;2.30;1.83;;;16.20;97.20;;;;;;1748081;28;20252;-65
2022/06/09 05:20:18;;;;;;;3.17;1.77;;;16.20;97.20;;;;;;1747747;28;20198;-65
2022/06/09 05:21:10;;;;;;;3.38;1.67;;;16.10;97.20;;;;;;1747996;28;20248;-65
2022/06/09 05:22:00;;;;;;;2.35;1.50;;;16.20;97.20;;;;;;1748030;28;20293;-65
2022/06/09 05:22:52;;;;;;;1.67;1.37;;;16.20;97.20;;;;;;1748134;28;20194;-65
2022/06/09 05:23:43;;;;;;;3.22;1.52;;;16.20;97.20;;;;;;1748049;28;20202;-65
2022/06/09 05:24:35;;;;;;;5.63;2.00;;;16.20;97.20;;;;;;1748037;28;20212;-65
2022/06/09 05:25:26;;;;;;;1.92;1.60;;;16.20;97.20;;;;;;1747967;28;20214;-65
2022/06/09 05:26:17;;;;;;;3.77;1.57;;;16.20;97.20;;;;;;1748024;28;20289;-65
2022/06/09 05:27:08;;;;;;;3.67;1.42;;;16.30;97.20;;;;;;1747765;28;20440;-65
2022/06/09 05:28:00;;;;;;;2.80;1.47;;;16.30;97.20;;;;;;1747849;28;20321;-65
2022/06/09 05:28:51;;;;;;;3.33;1.40;;;16.30;97.20;;;;;;1747991;28;20460;-65
2022/06/09 05:29:42;;;;;;;2.60;1.50;;;16.30;97.20;;;;;;1747982;28;20269;-65
2022/06/09 05:30:33;;;;;;;1.85;1.60;;;16.30;97.20;;;;;;1747978;28;20254;-65
2022/06/09 05:31:28;;;;;;;2.27;1.73;;;16.30;97.20;;;;;;1748016;28;20673;-65
2022/06/09 05:32:19;;;;;;;3.50;1.38;;;16.20;97.20;;;;;;1747960;28;20584;-65
2022/06/09 05:33:11;;;;;;;2.70;2.00;;;16.30;97.20;;;;;;1748010;28;20305;-65
2022/06/09 05:34:02;;;;;;;3.63;1.63;;;16.30;97.20;;;;;;1747953;28;20209;-65
2022/06/09 05:34:53;;;;;;;1.93;1.20;;;16.30;97.20;;;;;;1748043;28;20276;-65
2022/06/09 05:35:44;;;;;;;2.70;1.60;;;16.30;97.20;;;;;;1747996;28;20205;-65
2022/06/09 05:36:36;;;;;;;4.13;1.50;;;16.30;97.20;;;;;;1747291;28;20278;-65
2022/06/09 05:44:50;;;;;;;2.60;1.65;;;16.30;97.20;;;;;;1747929;28;20202;-65
2022/06/09 05:44:54;;;;;;;3.78;1.30;;;16.40;97.20;;;;;;1747279;28;20213;-64
2022/06/09 05:45:45;;;;;;;3.53;1.85;;;16.40;97.20;;;;;;1747476;28;20199;-65
2022/06/09 05:46:38;;;;;;;4.38;1.67;;;16.50;97.20;;;;;;1746994;28;20206;-65
2022/06/09 05:47:29;;;;;;;2.95;1.52;;;16.50;97.20;;;;;;1747385;28;20686;-65
2022/06/09 05:48:21;;;;;;;2.30;1.60;;;16.50;97.20;;;;;;1747110;28;20667;-65
2022/06/09 05:49:13;;;;;;;5.25;1.60;;;16.60;97.20;;;;;;1747735;28;20257;-65
2022/06/09 05:50:06;;;;;;;3.33;1.83;;;16.60;97.20;;;;;;1747880;28;20225;-65
2022/06/09 05:50:57;;;;;;;2.85;1.40;;;16.60;97.20;;;;;;1747835;28;20604;-65
2022/06/09 05:51:50;;;;;;;3.38;1.77;;;16.70;97.20;;;;;;1747972;28;20248;-65
2022/06/09 05:52:41;;;;;;;3.05;1.60;;;16.70;97.20;;;;;;1747900;28;20234;-65
2022/06/09 05:53:33;;;;;;;3.13;1.50;;;16.70;97.20;;;;;;1747856;28;20194;-65
2022/06/09 05:54:25;;;;;;;2.22;1.40;;;16.70;97.20;;;;;;1747675;28;20202;-65
2022/06/09 05:55:15;;;;;;;2.90;1.60;;;16.70;97.20;;;;;;1747870;28;20202;-65
2022/06/09 05:56:09;;;;;;;2.50;1.23;;;16.70;97.20;;;;;;1747877;28;20491;-64
2022/06/09 05:56:59;;;;;;;4.70;1.90;;;16.70;97.20;;;;;;1747439;28;20198;-65
2022/06/09 05:57:51;;;;;;;3.27;1.30;;;16.70;97.20;;;;;;1747336;28;20209;-65
2022/06/09 05:58:42;;;;;;;3.78;1.63;;;16.60;97.20;;;;;;1747169;28;20198;-65
2022/06/09 05:59:34;;;;;;;1.98;1.23;;;16.60;97.20;;;;;;1747121;28;20198;-65
2022/06/09 06:00:25;;;;;;;3.80;1.60;;;16.60;97.20;;;;;;1747287;28;20210;-66
2022/06/09 06:01:17;;;;;;;4.15;1.42;;;16.60;97.20;;;;;;1747272;28;20576;-65
2022/06/09 06:02:11;;;;;;;2.40;1.50;;;16.60;97.20;;;;;;1747265;28;20273;-65
2022/06/09 06:03:03;;;;;;;3.17;1.70;;;16.60;97.20;;;;;;1747747;28;20202;-65
2022/06/09 06:03:54;;;;;;;2.78;1.15;;;16.60;97.20;;;;;;1747519;28;20194;-65
2022/06/09 06:04:46;;;;;;;3.23;1.40;;;16.60;97.20;;;;;;1747665;28;20281;-65
2022/06/09 06:06:46;;;;;;;2.88;1.15;;;16.60;97.20;;;;;;1747448;28;20938;-65
2022/06/09 06:07:37;;;;;;;3.10;1.70;;;16.70;97.20;;;;;;1747807;28;20276;-65
2022/06/09 06:08:28;;;;;;;3.17;1.35;;;16.70;97.20;;;;;;1747814;28;20202;-65
2022/06/09 06:09:22;;;;;;;2.53;1.47;;;16.70;97.20;;;;;;1747858;28;20369;-65
2022/06/09 06:10:12;;;;;;;2.30;1.40;;;16.70;97.20;;;;;;1747858;28;20285;-65
2022/06/09 06:11:04;;;;;;;4.53;1.33;;;16.70;97.20;;;;;;1747890;28;20222;-65
2022/06/09 06:11:55;;;;;;;2.95;1.35;;;16.70;97.20;;;;;;1747804;28;20569;-65
2022/06/09 06:12:47;;;;;;;3.33;1.40;;;16.70;97.20;;;;;;1747469;28;20627;-65
2022/06/09 06:13:38;;;;;;;6.57;1.65;;;16.70;97.20;;;;;;1747786;28;20812;-65
2022/06/09 06:14:29;;;;;;;4.43;1.33;;;16.70;97.20;;;;;;1747831;28;20245;-65
2022/06/09 06:15:20;;;;;;;3.83;1.98;;;16.70;97.20;;;;;;1747854;28;20210;-65
2022/06/09 06:16:12;;;;;;;2.90;1.60;;;16.70;97.20;;;;;;1747777;28;20282;-65
2022/06/09 06:17:03;;;;;;;4.30;1.85;;;16.70;97.20;;;;;;1747619;28;20293;-65
2022/06/09 06:17:57;;;;;;;2.90;1.45;;;16.70;97.20;;;;;;1747632;28;20745;-65
2022/06/09 06:18:48;;;;;;;2.38;1.08;;;16.70;97.20;;;;;;1747799;28;20198;-65
2022/06/09 06:19:40;;;;;;;5.72;1.30;;;16.70;97.20;;;;;;1747872;28;20633;-65
2022/06/09 06:20:31;;;;;;;2.65;1.27;;;16.70;97.20;;;;;;1747773;28;20213;-65
2022/06/09 06:21:25;;;;;;;4.32;1.52;;;16.70;97.20;;;;;;1747905;28;20209;-65
2022/06/09 06:22:16;;;;;;;3.92;1.80;;;16.70;97.20;;;;;;1748714;28;20209;-65
2022/06/09 06:23:08;;;;;;;2.80;1.67;;;16.70;97.20;;;;;;1749231;28;20296;-65
2022/06/09 06:23:59;;;;;;;4.18;1.30;;;16.70;97.20;;;;;;1749354;28;20202;-65
2022/06/09 06:24:51;;;;;;;3.70;1.38;;;16.70;97.20;;;;;;1749214;28;20198;-65
2022/06/09 06:25:41;;;;;;;2.90;1.10;;;16.80;97.20;;;;;;1749304;28;20729;-65
2022/06/09 06:26:34;;;;;;;4.60;1.53;;;16.80;97.20;;;;;;1748905;28;20621;-65
2022/06/09 06:27:25;;;;;;;4.07;1.42;;;16.80;97.20;;;;;;1749247;28;20259;-65
2022/06/09 06:28:17;;;;;;;6.33;1.80;;;16.80;97.20;;;;;;1749082;28;20256;-65
2022/06/09 06:29:14;;;;;;;3.08;1.40;;;16.80;97.20;;;;;;1748879;28;20199;-65
2022/06/09 06:30:07;;;;;;;3.83;1.35;;;16.80;97.20;;;;;;1749058;28;20712;-65
2022/06/09 06:30:58;;;;;;;6.07;1.65;;;16.90;97.20;;;;;;1749130;28;20218;-65
2022/06/09 06:31:50;;;;;;;4.20;1.83;;;16.90;97.20;;;;;;1749140;28;20291;-65
2022/06/09 06:32:41;;;;;;;4.45;2.00;;;16.90;97.20;;;;;;1749220;28;20824;-65
2022/06/09 06:33:34;;;;;;;8.37;2.17;;;17.00;97.20;;;;;;1749182;28;20285;-65
2022/06/09 06:34:26;;;;;;;3.20;1.35;;;17.00;97.20;;;;;;1749118;28;20210;-65
2022/06/09 06:35:17;;;;;;;3.90;1.55;;;17.00;97.20;;;;;;1749286;28;20217;-65
2022/06/09 06:36:09;;;;;;;4.43;2.03;;;17.00;97.20;;;;;;1749080;28;20205;-65
2022/06/09 06:37:00;;;;;;;4.55;1.63;;;17.00;97.20;;;;;;1748898;28;20209;-65
2022/06/09 06:37:52;;;;;;;4.70;2.43;;;17.00;97.20;;;;;;1748975;28;20241;-65
2022/06/09 06:38:43;;;;;;;5.70;1.50;;;17.00;97.20;;;;;;1749142;28;20202;-65
2022/06/09 06:39:35;;;;;;;3.05;1.38;;;17.00;97.20;;;;;;1749027;28;20229;-65
2022/06/09 06:40:26;;;;;;;4.43;1.38;;;17.00;97.20;;;;;;1749129;28;20214;-65
2022/06/09 06:41:19;;;;;;;3.50;1.23;;;17.00;97.20;;;;;;1749116;28;20273;-65
2022/06/09 06:42:09;;;;;;;2.65;1.30;;;17.00;97.20;;;;;;1749052;28;20218;-65
2022/06/09 06:43:01;;;;;;;3.40;1.50;;;17.10;97.20;;;;;;1749177;28;20487;-65
2022/06/09 06:43:52;;;;;;;3.45;1.33;;;17.10;97.20;;;;;;1749151;28;20198;-65
2022/06/09 06:44:44;;;;;;;5.60;2.00;;;17.10;97.20;;;;;;1748906;28;20753;-65
2022/06/09 06:45:35;;;;;;;4.32;1.42;;;17.10;97.20;;;;;;1747961;28;20658;-65
2022/06/09 06:46:27;;;;;;;2.80;1.43;;;17.10;97.20;;;;;;1748985;28;20648;-65
2022/06/09 06:47:18;;;;;;;5.15;1.42;;;17.10;97.20;;;;;;1748796;28;20724;-65
2022/06/09 06:48:10;;;;;;;3.97;1.30;;;17.10;97.20;;;;;;1748935;28;20700;-65
2022/06/09 06:49:04;;;;;;;2.47;1.25;;;17.10;97.20;;;;;;1749151;28;20202;-65
2022/06/09 06:49:55;;;;;;;4.72;1.35;;;17.10;97.20;;;;;;1749135;28;20198;-65
2022/06/09 06:50:47;;;;;;;3.27;1.30;;;17.10;97.20;;;;;;1748980;28;20191;-65
2022/06/09 06:51:38;;;;;;;3.67;1.33;;;17.10;97.20;;;;;;1749098;28;20194;-65
2022/06/09 06:52:29;;;;;;;3.70;1.17;;;17.10;97.20;;;;;;1749085;28;20202;-65
2022/06/09 06:53:20;;;;;;;3.35;1.38;;;17.20;97.20;;;;;;1749050;28;20206;-65
2022/06/09 06:54:12;;;;;;;3.40;1.57;;;17.20;97.20;;;;;;1749016;28;20198;-65
2022/06/09 06:55:04;;;;;;;5.93;1.70;;;17.20;97.20;;;;;;1749046;28;20436;-65
2022/06/09 06:55:56;;;;;;;4.68;1.65;;;17.20;97.20;;;;;;1748946;28;20202;-65
2022/06/09 06:56:48;;;;;;;3.20;1.60;;;17.20;97.20;;;;;;1748657;28;20287;-65
2022/06/09 06:57:38;;;;;;;2.40;1.25;;;17.20;97.20;;;;;;1748854;28;20195;-65
2022/06/09 06:58:30;;;;;;;2.03;1.20;;;17.20;97.20;;;;;;1748856;28;20289;-65
2022/06/09 06:59:21;;;;;;;4.28;1.90;;;17.20;97.20;;;;;;1749016;28;20598;-65
2022/06/09 07:00:16;;;;;;;2.80;1.30;;;17.30;97.20;;;;;;1748677;28;20221;-65
2022/06/09 07:01:07;;;;;;;4.45;1.67;;;17.30;97.20;;;;;;1748897;28;20445;-65
2022/06/09 07:01:59;;;;;;;4.93;1.40;;;17.40;97.20;;;;;;1748994;28;20217;-65
2022/06/09 07:02:51;;;;;;;3.70;1.48;;;17.40;97.20;;;;;;1748967;28;20670;-65
2022/06/09 07:03:43;;;;;;;2.95;1.30;;;17.40;97.20;;;;;;1748982;28;20203;-65
2022/06/09 07:04:35;;;;;;;5.35;1.38;;;17.50;97.20;;;;;;1748948;28;20209;-65
2022/06/09 07:05:27;;;;;;;2.25;1.00;;;17.50;97.20;;;;;;1748914;28;20202;-65
2022/06/09 07:06:19;;;;;;;4.80;1.30;;;17.50;97.20;;;;;;1748959;28;20206;-65
2022/06/09 07:07:09;;;;;;;3.47;1.52;;;17.50;97.20;;;;;;1748605;28;20689;-65
2022/06/09 07:08:03;;;;;;;4.10;1.33;;;17.60;97.20;;;;;;1748870;28;20211;-65
2022/06/09 07:08:55;;;;;;;6.13;1.30;;;17.60;97.20;;;;;;1748875;28;20195;-65
2022/06/09 07:09:46;;;;;;;3.15;1.30;;;17.60;97.20;;;;;;1748891;28;20612;-64
2022/06/09 07:10:37;;;;;;;3.93;1.20;;;17.60;97.20;;;;;;1748974;28;20619;-65
2022/06/09 07:11:29;;;;;;;6.40;1.35;;;17.60;97.20;;;;;;1748822;28;20226;-65
2022/06/09 07:12:20;;;;;;;4.88;1.73;;;17.60;97.20;;;;;;1748894;28;20202;-65
2022/06/09 07:13:13;;;;;;;2.80;1.23;;;17.60;97.20;;;;;;1748993;28;20492;-65
2022/06/09 07:14:04;;;;;;;8.38;1.65;;;17.60;97.20;;;;;;1748669;28;20207;-65
2022/06/09 07:14:56;;;;;;;2.40;1.20;;;17.60;97.20;;;;;;1748878;28;20647;-65
2022/06/09 07:15:47;;;;;;;4.68;1.50;;;17.60;97.20;;;;;;1748851;28;20666;-65
2022/06/09 07:16:39;;;;;;;4.60;1.53;;;17.60;97.20;;;;;;1748621;28;20613;-65
2022/06/09 07:17:30;;;;;;;3.05;1.40;;;17.60;97.20;;;;;;1748859;28;20451;-65
2022/06/09 07:18:21;;;;;;;2.70;1.17;;;17.60;97.20;;;;;;1748807;28;20221;-65
2022/06/09 07:19:12;;;;;;;5.18;1.80;;;17.60;97.20;;;;;;1748923;28;20932;-65
2022/06/09 07:20:07;;;;;;;2.88;1.38;;;17.60;97.20;;;;;;1748949;28;20245;-66
2022/06/09 07:20:59;;;;;;;4.35;1.70;;;17.60;97.20;;;;;;1748908;28;20195;-65
2022/06/09 07:21:50;;;;;;;3.78;1.80;;;17.60;97.20;;;;;;1748826;28;20702;-66
2022/06/09 07:22:41;;;;;;;5.07;1.80;;;17.60;97.20;;;;;;1748919;28;20595;-65
2022/06/09 07:23:34;;;;;;;2.57;1.20;;;17.60;97.20;;;;;;1748771;28;20640;-65
2022/06/09 07:24:25;;;;;;;4.03;1.40;;;17.60;97.20;;;;;;1748842;28;20436;-65
2022/06/09 07:25:24;;;;;;;7.88;2.05;;;17.60;97.20;;;;;;1748824;28;20205;-65
2022/06/09 07:26:15;;;;;;;2.72;1.60;;;17.60;97.20;;;;;;1748819;28;20202;-65
2022/06/09 07:27:06;;;;;;;4.93;1.40;;;17.70;97.20;;;;;;1748525;28;20229;-65
2022/06/09 07:27:58;;;;;;;3.63;1.40;;;17.70;97.20;;;;;;1748270;28;20210;-65
2022/06/09 07:28:49;;;;;;;4.57;1.30;;;17.60;97.20;;;;;;1748857;28;20214;-65
2022/06/09 07:29:42;;;;;;;4.13;1.87;;;17.60;97.20;;;;;;1748850;28;20282;-65
2022/06/09 07:30:33;;;;;;;2.47;1.20;;;17.60;97.20;;;;;;1748768;28;20203;-65
2022/06/09 07:31:25;;;;;;;5.35;1.30;;;17.60;97.20;;;;;;1748795;28;20226;-65
2022/06/09 07:32:17;;;;;;;6.60;1.65;;;17.60;97.20;;;;;;1748855;28;20202;-65
2022/06/09 07:33:09;;;;;;;3.05;1.13;;;17.60;97.20;;;;;;1748169;28;20273;-65
2022/06/09 07:34:00;;;;;;;2.95;1.20;;;17.60;97.20;;;;;;1748847;28;20198;-65
2022/06/09 07:34:51;;;;;;;2.83;1.70;;;17.60;97.20;;;;;;1748690;28;20195;-65
2022/06/09 07:35:44;;;;;;;3.87;1.87;;;17.70;97.20;;;;;;1748827;28;20209;-65
2022/06/09 07:36:36;;;;;;;3.70;1.50;;;17.70;97.20;;;;;;1748359;28;20448;-65
2022/06/09 07:37:27;;;;;;;3.92;1.30;;;17.70;97.20;;;;;;1748754;28;20202;-65
2022/06/09 07:38:19;;;;;;;2.80;0.98;;;17.70;97.20;;;;;;1748675;28;20226;-65
2022/06/09 07:39:11;;;;;;;2.85;1.55;;;17.70;97.20;;;;;;1748641;28;20194;-65
2022/06/09 07:40:04;;;;;;;3.92;1.30;;;17.70;97.20;;;;;;1748738;28;20537;-65
2022/06/09 07:40:56;;;;;;;3.90;1.10;;;17.80;97.20;;;;;;1748728;28;20218;-65
2022/06/09 07:41:47;;;;;;;4.78;1.40;;;17.80;97.20;;;;;;1748763;28;20202;-65
2022/06/09 07:42:39;;;;;;;5.70;1.53;;;17.80;97.20;;;;;;1748778;28;20274;-65
2022/06/09 07:43:30;;;;;;;5.07;1.55;;;17.80;97.20;;;;;;1748665;28;20203;-65
2022/06/09 07:44:21;;;;;;;5.37;1.57;;;17.90;97.20;;;;;;1748560;28;20285;-65
2022/06/09 07:45:12;;;;;;;4.30;1.90;;;17.90;97.20;;;;;;1748649;28;20786;-65
2022/06/09 07:46:04;;;;;;;3.53;1.48;;;17.90;97.20;;;;;;1748689;28;20717;-65
2022/06/09 07:46:55;;;;;;;3.08;1.30;;;17.90;97.20;;;;;;1748367;28;20202;-65
2022/06/09 07:47:48;;;;;;;4.40;1.47;;;18.00;97.20;;;;;;1748509;28;20194;-65
2022/06/09 07:48:39;;;;;;;3.40;1.20;;;18.00;97.20;;;;;;1748815;28;20199;-65
2022/06/09 07:49:31;;;;;;;4.15;1.80;;;18.00;97.20;;;;;;1748590;28;20586;-65
2022/06/09 07:50:21;;;;;;;2.78;1.20;;;18.00;97.20;;;;;;1748930;28;20257;-65
2022/06/09 07:51:14;;;;;;;4.50;1.90;;;18.00;97.20;;;;;;1748556;28;20198;-65
2022/06/09 07:52:06;;;;;;;2.78;1.05;;;18.10;97.20;;;;;;1748654;28;20195;-65
2022/06/09 07:52:58;;;;;;;2.22;1.35;;;18.10;97.20;;;;;;1748652;28;20202;-65
2022/06/09 07:53:48;;;;;;;8.07;1.65;;;18.10;97.20;;;;;;1748687;28;20462;-65
2022/06/09 07:54:40;;;;;;;3.30;1.37;;;18.10;97.20;;;;;;1748838;28;20193;-65
2022/06/09 07:55:32;;;;;;;3.35;1.50;;;18.10;97.20;;;;;;1748551;28;20202;-65
2022/06/09 07:56:24;;;;;;;3.65;1.38;;;18.10;97.20;;;;;;1748615;28;20662;-65
2022/06/09 07:57:15;;;;;;;2.13;1.20;;;18.20;97.20;;;;;;1748365;28;20202;-65
2022/06/09 07:58:07;;;;;;;3.20;1.25;;;18.20;97.20;;;;;;1748524;28;20217;-66
2022/06/09 07:58:58;;;;;;;3.90;1.30;;;18.20;97.20;;;;;;1748650;28;20210;-65
2022/06/09 07:59:50;;;;;;;6.13;2.23;;;18.20;97.20;;;;;;1748723;28;20281;-65
2022/06/09 08:00:41;;;;;;;4.03;1.42;;;18.30;97.20;;;;;;1748665;28;20444;-65
2022/06/09 08:01:33;;;;;;;6.47;1.50;;;18.30;97.20;;;;;;1748273;28;20191;-65
2022/06/09 08:02:23;;;;;;;6.20;1.45;;;18.30;97.20;;;;;;1748616;28;20451;-66
2022/06/09 08:03:19;;;;;;;4.47;1.53;;;18.30;97.20;;;;;;1748541;28;20204;-65
2022/06/09 08:04:09;;;;;;;2.75;1.20;;;18.30;97.20;;;;;;1748550;28;20658;-65
2022/06/09 08:05:01;;;;;;;6.07;1.50;;;18.30;97.20;;;;;;1748620;28;20721;-65
2022/06/09 08:05:53;;;;;;;3.83;1.92;;;18.30;97.20;;;;;;1748445;28;20202;-65
2022/06/09 08:06:46;;;;;;;4.05;1.60;;;18.30;97.20;;;;;;1748291;28;20582;-65
2022/06/09 08:07:37;;;;;;;5.10;1.55;;;18.40;97.20;;;;;;1748433;28;20229;-65
2022/06/09 08:08:28;;;;;;;2.47;1.23;;;18.40;97.20;;;;;;1748546;28;20206;-65
2022/06/09 08:09:19;;;;;;;2.85;1.10;;;18.40;97.20;;;;;;1748580;28;20449;-65
2022/06/09 08:10:17;;;;;;;3.33;1.47;;;18.40;97.20;;;;;;1748586;28;20286;-65
2022/06/09 08:11:09;;;;;;;4.68;1.67;;;18.40;97.20;;;;;;1748546;28;20312;-65
2022/06/09 08:12:01;;;;;;;3.33;1.30;;;18.40;97.20;;;;;;1748511;28;20229;-65
2022/06/09 08:12:55;;;;;;;4.78;1.08;;;18.40;97.20;;;;;;1748383;28;20216;-65
2022/06/09 08:13:46;;;;;;;4.07;1.23;;;18.40;97.20;;;;;;1748466;28;20673;-65
2022/06/09 08:14:37;;;;;;;4.80;1.13;;;18.40;97.20;;;;;;1748512;28;20199;-65
2022/06/09 08:15:30;;;;;;;5.90;1.60;;;18.40;97.20;;;;;;1748449;28;20654;-65
2022/06/09 08:16:21;;;;;;;2.35;1.13;;;18.50;97.20;;;;;;1748405;28;20839;-65
2022/06/09 08:17:13;;;;;;;3.70;1.60;;;18.50;97.20;;;;;;1748021;28;20281;-65
2022/06/09 08:18:04;;;;;;;4.25;1.23;;;18.50;97.20;;;;;;1748321;28;20229;-65
2022/06/09 08:18:56;;;;;;;3.78;1.13;;;18.50;97.20;;;;;;1748419;28;20190;-65
2022/06/09 08:19:47;;;;;;;2.55;1.10;;;18.50;97.20;;;;;;1748418;28;20236;-65
2022/06/09 08:20:42;;;;;;;3.75;1.05;;;18.60;97.20;;;;;;1748591;28;20201;-65
2022/06/09 08:21:34;;;;;;;2.55;0.90;;;18.60;97.20;;;;;;1748494;28;20198;-65
2022/06/09 08:22:27;;;;;;;4.18;1.38;;;18.60;97.20;;;;;;1748491;28;20198;-65
2022/06/09 08:23:21;;;;;;;3.03;1.33;;;18.60;97.20;;;;;;1748488;28;20397;-65
2022/06/09 08:24:13;;;;;;;3.35;1.15;;;18.70;97.20;;;;;;1748384;28;20633;-65
2022/06/09 08:25:05;;;;;;;3.38;1.17;;;18.70;97.20;;;;;;1748386;28;20217;-65
2022/06/09 08:26:02;;;;;;;1.75;0.70;;;18.70;97.20;;;;;;1748307;28;20673;-65
2022/06/09 08:26:53;;;;;;;4.03;1.20;;;18.70;97.20;;;;;;1748177;28;20202;-65
2022/06/09 08:27:44;;;;;;;2.70;1.00;;;18.80;97.20;;;;;;1748234;28;20499;-65
2022/06/09 08:28:35;;;;;;;3.47;1.50;;;18.80;97.20;;;;;;1769880;22;20223;-68
2022/06/09 08:29:27;;;;;;;2.47;1.10;;;18.80;97.20;;;;;;1748486;28;20293;-69
2022/06/09 08:30:19;;;;;;;4.50;1.10;;;18.80;97.20;;;;;;1748341;28;20214;-68
2022/06/09 08:31:10;;;;;;;4.88;1.20;;;18.80;97.20;;;;;;1748451;28;20202;-67
2022/06/09 08:32:01;;;;;;;5.15;1.33;;;18.90;97.20;;;;;;1748288;28;20218;-68
2022/06/09 08:32:53;;;;;;;3.60;0.90;;;18.90;97.20;;;;;;1748460;28;20285;-68
2022/06/09 08:33:44;;;;;;;4.50;1.00;;;18.90;97.20;;;;;;1748481;28;20440;-68
2022/06/09 08:34:36;;;;;;;2.63;1.08;;;18.90;97.20;;;;;;1747931;28;20277;-67
2022/06/09 08:35:28;;;;;;;2.20;1.15;;;19.00;97.20;;;;;;1748340;28;20244;-68
2022/06/09 08:36:20;;;;;;;5.75;1.67;;;19.00;97.20;;;;;;1748133;28;20191;-68
2022/06/09 08:37:11;;;;;;;4.25;1.00;;;19.00;97.20;;;;;;1747952;28;20207;-68
2022/06/09 08:38:04;;;;;;;4.00;1.17;;;19.10;97.20;;;;;;1748228;28;20210;-68
2022/06/09 08:38:56;;;;;;;2.60;1.00;;;19.10;97.20;;;;;;1748141;28;20210;-67
2022/06/09 08:39:47;;;;;;;3.88;1.10;;;19.10;97.20;;;;;;1748164;28;20203;-68
2022/06/09 08:40:47;;;;;;;2.83;1.33;;;19.20;97.20;;;;;;1748155;28;20226;-69
2022/06/09 08:41:46;;;;;;;2.67;1.05;;;19.20;97.20;;;;;;1748100;28;20202;-69
2022/06/09 08:42:49;;;;;;;3.40;1.40;;;19.20;97.20;;;;;;1748174;28;20204;-69
2022/06/09 08:43:46;;;;;;;1.63;0.90;;;19.30;97.20;;;;;;1748291;28;20335;-69
2022/06/09 08:44:45;;;;;;;2.97;1.00;;;19.30;97.20;;;;;;1747489;28;20202;-69
2022/06/09 08:45:38;;;;;;;4.97;1.10;;;19.40;97.20;;;;;;1748137;28;20574;-68
2022/06/09 08:46:41;;;;;;;5.65;1.60;;;19.40;97.20;;;;;;1748200;28;20194;-68
2022/06/09 08:47:37;;;;;;;2.70;1.42;;;19.50;97.20;;;;;;1748215;28;20602;-68
2022/06/09 08:48:37;;;;;;;3.72;1.05;;;19.50;97.20;;;;;;1748193;28;20713;-68
2022/06/09 08:49:48;;;;;;;4.75;1.20;;;19.60;97.20;;;;;;1748293;28;20211;-69
2022/06/09 08:50:46;;;;;;;4.18;1.60;;;19.60;97.20;;;;;;1748378;28;20205;-69
2022/06/09 08:51:40;;;;;;;2.85;1.02;;;19.60;97.20;;;;;;1747986;28;20619;-69
2022/06/09 08:52:50;;;;;;;2.15;0.95;;;19.70;97.20;;;;;;1748176;28;20353;-69
2022/06/09 08:53:47;;;;;;;5.53;1.23;;;19.70;97.20;;;;;;1748239;28;20221;-68
2022/06/09 08:54:40;;;;;;;5.03;1.13;;;19.70;97.20;;;;;;1748212;28;20194;-68
2022/06/09 08:55:39;;;;;;;3.55;0.85;;;19.70;97.20;;;;;;1748253;28;20682;-68
2022/06/09 08:56:31;;;;;;;3.17;1.00;;;19.80;97.20;;;;;;1748175;28;20214;-68
2022/06/09 08:57:31;;;;;;;2.13;1.00;;;19.80;97.20;;;;;;1748263;28;20198;-69
2022/06/09 08:58:27;;;;;;;2.53;0.93;;;19.80;97.20;;;;;;1748219;28;20206;-69
2022/06/09 08:59:22;;;;;;;4.32;1.23;;;19.80;97.20;;;;;;1748188;28;20206;-68
2022/06/09 09:00:17;;;;;;;3.47;1.63;;;19.80;97.20;;;;;;1747964;28;20237;-69
2022/06/09 09:01:22;;;;;;;4.22;1.30;;;19.80;97.20;;;;;;1748150;28;20240;-69
2022/06/09 09:02:27;;;;;;;3.20;1.00;;;19.80;97.20;;;;;;1748161;28;20198;-69
2022/06/09 09:03:23;;;;;;;3.65;1.30;;;19.80;97.20;;;;;;1747945;28;20199;-69
2022/06/09 09:04:19;;;;;;;3.55;1.48;;;19.80;97.20;;;;;;1748131;28;20654;-68
2022/06/09 09:05:19;;;;;;;3.45;1.35;;;19.80;97.20;;;;;;1748125;28;20704;-69
2022/06/09 09:06:23;;;;;;;3.65;1.55;;;19.80;97.20;;;;;;1748042;28;20685;-69
2022/06/09 09:07:20;;;;;;;2.65;1.05;;;19.80;97.20;;;;;;1747773;28;20202;-69
2022/06/09 09:08:13;;;;;;;3.25;0.98;;;19.80;97.20;;;;;;1748035;28;20206;-68
2022/06/09 09:09:15;;;;;;;2.40;0.90;;;19.90;97.20;;;;;;1748063;28;20210;-69
2022/06/09 09:10:16;;;;;;;3.17;0.93;;;19.90;97.20;;;;;;1748245;28;20198;-69
2022/06/09 09:11:30;;;;;;;2.80;1.00;;;19.90;97.20;;;;;;1748074;28;20206;-69
2022/06/09 09:12:35;;;;;;;2.33;1.13;;;19.90;97.20;;;;;;1748073;28;20223;-68
2022/06/09 09:13:48;;;;;;;3.72;1.60;;;20.00;97.20;;;;;;1748235;28;20203;-69
2022/06/09 09:14:46;;;;;;;3.10;1.00;;;20.00;97.20;;;;;;1748112;28;20210;-69
2022/06/09 09:15:43;;;;;;;2.58;0.93;;;20.10;97.20;;;;;;1748075;28;20551;-69
2022/06/09 09:16:42;;;;;;;2.22;1.10;;;20.10;97.20;;;;;;1747770;28;20571;-69
2022/06/09 09:17:42;;;;;;;3.25;1.00;;;20.10;97.20;;;;;;1747714;28;20666;-69
2022/06/09 09:18:44;;;;;;;2.20;1.25;;;20.20;97.20;;;;;;1748098;28;20717;-69
2022/06/09 09:19:44;;;;;;;3.45;1.10;;;20.20;97.20;;;;;;1748120;28;20203;-69
2022/06/09 09:20:43;;;;;;;2.53;0.95;;;20.20;97.20;;;;;;1748065;28;20210;-68
2022/06/09 09:22:03;;;;;;;5.22;1.58;;;20.20;97.20;;;;;;1748026;28;20226;-69
2022/06/09 09:23:04;;;;;;;2.55;0.98;;;20.20;97.20;;;;;;1743123;28;20210;-68
2022/06/09 09:24:18;;;;;;;2.45;1.00;;;20.20;97.20;;;;;;1747988;28;20234;-69
2022/06/09 09:25:23;;;;;;;1.60;0.85;;;20.20;97.20;;;;;;1748096;28;20289;-69
2022/06/09 09:26:24;;;;;;;2.45;1.20;;;20.20;97.20;;;;;;1747966;28;20198;-68
2022/06/09 09:27:28;;;;;;;2.85;1.00;;;20.20;97.20;;;;;;1747709;28;20199;-68
2022/06/09 09:28:22;;;;;;;1.10;0.70;;;20.30;97.20;;;;;;1747890;28;20580;-68
2022/06/09 09:29:20;;;;;;;3.53;0.80;;;20.30;97.20;;;;;;1747959;28;20629;-69
2022/06/09 09:30:18;;;;;;;2.13;0.90;;;20.30;97.20;;;;;;1747932;28;20213;-69
2022/06/09 09:31:21;;;;;;;2.97;0.90;;;20.30;97.20;;;;;;1747983;28;20202;-69
2022/06/09 09:32:15;;;;;;;2.20;1.27;;;20.40;97.20;;;;;;1747617;28;20215;-68
2022/06/09 09:33:16;;;;;;;4.88;1.40;;;20.40;97.20;;;;;;1747959;28;20282;-69
2022/06/09 09:34:16;;;;;;;2.83;1.20;;;20.50;97.20;;;;;;1741084;28;20219;-70
2022/06/09 09:35:14;;;;;;;1.70;0.90;;;20.50;97.20;;;;;;1741119;28;20241;-69
2022/06/09 09:36:14;;;;;;;2.63;1.00;;;20.50;97.20;;;;;;1741211;28;20301;-69
2022/06/09 09:37:24;;;;;;;2.08;0.90;;;20.60;97.20;;;;;;1740976;28;20698;-69
2022/06/09 09:38:19;;;;;;;2.03;1.15;;;20.60;97.20;;;;;;1741846;28;20298;-69
2022/06/09 09:39:15;;;;;;;5.53;1.52;;;20.70;97.20;;;;;;1742124;28;20207;-70
2022/06/09 09:40:20;;;;;;;2.33;0.70;;;20.70;97.20;;;;;;1742200;28;20203;-69
2022/06/09 09:41:26;;;;;;;2.88;1.00;;;20.80;97.20;;;;;;1741759;28;20207;-69
2022/06/09 09:42:21;;;;;;;3.35;1.10;;;20.80;97.20;;;;;;1742208;28;20651;-69
2022/06/09 09:43:15;;;;;;;2.20;1.15;;;20.90;97.20;;;;;;1741578;28;20242;-69
2022/06/09 09:44:16;;;;;;;1.65;0.90;;;20.90;97.20;;;;;;1741981;28;20202;-69
2022/06/09 09:45:17;;;;;;;1.90;0.90;;;21.00;97.20;;;;;;1741519;28;20211;-69
2022/06/09 09:46:28;;;;;;;1.92;1.10;;;21.00;97.20;;;;;;1741177;28;20211;-69
2022/06/09 09:47:25;;;;;;;3.03;0.98;;;21.10;97.20;;;;;;1741039;28;20773;-69